This is the latest recevied weather packets stored in our database for station/object YO8PIC-13. If no packets are shown the sender has not sent any weather packets the latest 10 day(s).
| Time | Temp. | Humidity | Pressure | Rain* | Wind** | Luminosity | Snow |
|---|---|---|---|---|---|---|---|
| 1787914334 | 42.78° C | 11% | 1024.9 hPa | - | - | - | - |
| 1787913734 | 38.89° C | 13% | 1025.1 hPa | - | - | - | - |
| 1787913134 | 34.44° C | 18% | 1025.4 hPa | - | - | - | - |
| 1787912533 | 40.56° C | 13% | 1025.3 hPa | - | - | - | - |
| 1787911934 | 38.33° C | 16% | 1025.3 hPa | - | - | - | - |
| 1787911334 | 38.33° C | 15% | 1025.5 hPa | - | - | - | - |
| 1787910734 | 35.56° C | 22% | 1025.6 hPa | - | - | - | - |
| 1787910134 | 36.67° C | 21% | 1025.9 hPa | - | - | - | - |
| 1787909535 | 38.33° C | 19% | 1026 hPa | - | - | - | - |
| 1787908934 | 37.78° C | 18% | 1026 hPa | - | - | - | - |
| 1787908333 | 35° C | 22% | 1026.2 hPa | - | - | - | - |
| 1787907733 | 28.89° C | 31% | 1026.5 hPa | - | - | - | - |
| 1787906541 | 30.56° C | 31% | 1026.5 hPa | - | - | - | - |
| 1787905934 | 22.22° C | 53% | 1026.9 hPa | - | - | - | - |
| 1787905333 | 21.67° C | 57% | 1027 hPa | - | - | - | - |
| 1787904740 | 21.67° C | 55% | 1026.9 hPa | - | - | - | - |
| 1787904134 | 21.67° C | 56% | 1027.1 hPa | - | - | - | - |
| 1787903534 | 20.56° C | 58% | 1027.1 hPa | - | - | - | - |
| 1787902934 | 20.56° C | 57% | 1027 hPa | - | - | - | - |
| 1787902333 | 20° C | 60% | 1027.1 hPa | - | - | - | - |
| 1787901733 | 20° C | 62% | 1027.1 hPa | - | - | - | - |
| 1787901133 | 19.44° C | 62% | 1026.9 hPa | - | - | - | - |
| 1787900533 | 18.89° C | 65% | 1027 hPa | - | - | - | - |
| 1787899933 | 18.33° C | 65% | 1027.2 hPa | - | - | - | - |
| 1787899333 | 18.33° C | 66% | 1027.1 hPa | - | - | - | - |
* Rain since midnight (hover to see other rain measurements)
** Current wind speed in m/s (hover to see current wind gust speed)